createdAt,value
2022-11-10T00:00:51.867Z,8.81
2022-11-10T00:03:18.293Z,8.74
2022-11-10T00:05:44.791Z,8.51
2022-11-10T00:08:12.248Z,8.42
2022-11-10T00:10:58.438Z,8.63
2022-11-10T00:13:26.720Z,8.14
2022-11-10T00:16:12.285Z,8.23
2022-11-10T00:18:38.962Z,8.09
2022-11-10T00:21:07.492Z,8.02
2022-11-10T00:23:33.893Z,8.00
2022-11-10T00:26:00.337Z,7.87
2022-11-10T00:28:26.795Z,7.73
2022-11-10T00:30:53.329Z,7.71
2022-11-10T00:33:20.053Z,7.80
2022-11-10T00:35:46.547Z,7.71
2022-11-10T00:38:12.906Z,7.97
2022-11-10T00:40:39.309Z,8.09
2022-11-10T00:43:05.961Z,8.10
2022-11-10T00:45:32.311Z,8.02
2022-11-10T00:47:58.673Z,7.91
2022-11-10T00:50:25.380Z,8.03
2022-11-10T00:52:51.704Z,7.81
2022-11-10T00:55:18.129Z,7.71
2022-11-10T00:57:44.458Z,7.48
2022-11-10T01:00:11.176Z,7.45
2022-11-10T01:02:37.686Z,7.27
2022-11-10T01:05:04.226Z,7.26
2022-11-10T01:07:31.961Z,7.21
2022-11-10T01:09:58.343Z,7.12
2022-11-10T01:12:27.993Z,7.12
2022-11-10T01:14:54.371Z,7.00
2022-11-10T01:17:20.794Z,6.89
2022-11-10T01:19:47.154Z,6.94
2022-11-10T01:22:13.566Z,6.93
2022-11-10T01:24:39.927Z,7.00
2022-11-10T01:27:06.429Z,6.78
2022-11-10T01:29:32.780Z,6.85
2022-11-10T01:31:59.127Z,6.81
2022-11-10T01:34:25.476Z,6.87
2022-11-10T01:36:51.816Z,6.81
2022-11-10T01:39:18.148Z,6.83
2022-11-10T01:41:44.556Z,6.81
2022-11-10T01:44:16.367Z,6.80
2022-11-10T01:46:42.761Z,6.65
2022-11-10T01:49:09.706Z,6.67
2022-11-10T01:51:56.423Z,6.64
2022-11-10T01:54:27.302Z,6.54
2022-11-10T01:56:58.774Z,6.70
2022-11-10T01:59:30.141Z,6.63
2022-11-10T02:02:13.836Z,6.51
2022-11-10T02:04:41.431Z,6.58
2022-11-10T02:07:09.595Z,6.53
2022-11-10T02:09:36.035Z,6.55
2022-11-10T02:12:02.526Z,6.39
2022-11-10T02:14:29.521Z,6.41
2022-11-10T02:16:56.284Z,6.49
2022-11-10T02:19:25.467Z,6.59
2022-11-10T02:21:52.094Z,6.53
2022-11-10T02:24:18.512Z,6.49
2022-11-10T02:26:54.435Z,6.51
2022-11-10T02:29:21.823Z,6.41
2022-11-10T02:31:48.217Z,6.30
2022-11-10T02:34:14.981Z,6.29
2022-11-10T02:36:41.675Z,6.13
2022-11-10T02:39:08.067Z,6.15
2022-11-10T02:41:34.403Z,6.12
2022-11-10T02:44:00.959Z,6.07
2022-11-10T02:46:27.375Z,6.13
2022-11-10T02:48:53.723Z,6.04
2022-11-10T02:51:20.424Z,6.10
2022-11-10T02:53:46.761Z,6.20
2022-11-10T02:56:13.114Z,6.01
2022-11-10T02:58:39.473Z,6.02
2022-11-10T03:01:06.855Z,5.81
2022-11-10T03:03:34.099Z,5.99
2022-11-10T03:06:00.651Z,6.03
2022-11-10T03:08:27.021Z,6.09
2022-11-10T03:10:55.293Z,5.99
2022-11-10T03:13:22.890Z,6.16
2022-11-10T03:15:49.859Z,6.03
2022-11-10T03:18:16.372Z,6.01
2022-11-10T03:20:42.801Z,5.87
2022-11-10T03:23:09.255Z,6.01
2022-11-10T03:25:35.602Z,6.13
2022-11-10T03:28:01.936Z,5.79
2022-11-10T03:30:29.012Z,5.84
2022-11-10T03:32:55.382Z,5.96
2022-11-10T03:35:21.883Z,5.90
2022-11-10T03:37:48.214Z,5.95
2022-11-10T03:40:14.890Z,5.91
2022-11-10T03:42:42.985Z,5.82
2022-11-10T03:45:10.520Z,5.80
2022-11-10T03:47:36.900Z,5.80
2022-11-10T03:50:03.632Z,5.85
2022-11-10T03:52:30.140Z,5.78
2022-11-10T03:55:02.017Z,5.74
2022-11-10T03:57:29.939Z,5.49
2022-11-10T03:59:56.287Z,5.53
2022-11-10T04:02:22.659Z,5.48
2022-11-10T04:05:07.590Z,5.62
2022-11-10T04:07:52.230Z,5.41
2022-11-10T04:10:18.652Z,5.59
2022-11-10T04:13:03.781Z,5.56
2022-11-10T04:15:42.034Z,5.54
2022-11-10T04:18:21.653Z,5.42
2022-11-10T04:20:48.714Z,5.52
2022-11-10T04:23:28.381Z,5.50
2022-11-10T04:26:22.517Z,5.81
2022-11-10T04:28:52.191Z,5.55
2022-11-10T04:31:20.565Z,5.47
2022-11-10T04:33:48.054Z,5.98
2022-11-10T04:36:17.443Z,5.62
2022-11-10T04:38:43.856Z,5.51
2022-11-10T04:41:10.744Z,5.48
2022-11-10T04:43:38.335Z,5.54
2022-11-10T04:46:05.824Z,5.41
2022-11-10T04:48:34.130Z,5.47
2022-11-10T04:51:07.307Z,5.43
2022-11-10T04:53:33.797Z,5.46
2022-11-10T04:56:00.147Z,5.66
2022-11-10T04:58:26.637Z,5.71
2022-11-10T05:00:53.081Z,5.62
2022-11-10T05:03:19.631Z,5.70
2022-11-10T05:05:46.310Z,5.57
2022-11-10T05:08:12.701Z,5.57
2022-11-10T05:10:39.136Z,5.55
2022-11-10T05:13:05.896Z,5.64
2022-11-10T05:15:33.353Z,5.64
2022-11-10T05:17:59.982Z,5.68
2022-11-10T05:20:27.303Z,5.73
2022-11-10T05:23:12.671Z,5.77
2022-11-10T05:25:41.435Z,5.90
2022-11-10T05:28:10.215Z,6.08
2022-11-10T05:30:37.587Z,6.08
2022-11-10T05:33:04.927Z,6.88
2022-11-10T05:35:31.642Z,6.46
2022-11-10T05:38:01.889Z,6.39
2022-11-10T05:40:29.414Z,6.43
2022-11-10T05:42:56.014Z,6.36
2022-11-10T05:45:24.394Z,6.30
2022-11-10T05:47:51.525Z,6.23
2022-11-10T05:50:19.863Z,6.13
2022-11-10T05:52:50.339Z,6.07
2022-11-10T05:55:19.533Z,6.11
2022-11-10T05:57:47.496Z,6.01
2022-11-10T06:00:16.954Z,6.01
2022-11-10T06:02:44.579Z,6.11
2022-11-10T06:05:11.331Z,6.01
2022-11-10T06:07:38.622Z,5.98
2022-11-10T06:10:05.608Z,5.78
2022-11-10T06:12:32.683Z,5.88
2022-11-10T06:14:59.153Z,5.89
2022-11-10T06:17:26.019Z,6.02
2022-11-10T06:19:52.418Z,6.04
2022-11-10T06:22:19.415Z,5.98
2022-11-10T06:24:46.659Z,5.94
2022-11-10T06:27:13.036Z,6.03
2022-11-10T06:29:39.366Z,5.86
2022-11-10T06:32:05.782Z,5.67
2022-11-10T06:34:32.137Z,5.73
2022-11-10T06:36:58.491Z,5.73
2022-11-10T06:39:24.860Z,5.72
2022-11-10T06:41:51.259Z,5.77
2022-11-10T06:44:17.640Z,5.59
2022-11-10T06:46:44.027Z,5.65
2022-11-10T06:49:10.369Z,5.73
2022-11-10T06:51:36.796Z,5.88
2022-11-10T06:54:03.232Z,5.91
2022-11-10T06:56:29.564Z,5.90
2022-11-10T06:58:55.905Z,5.84
2022-11-10T07:01:26.384Z,5.86
2022-11-10T07:04:18.227Z,5.75
2022-11-10T07:06:39.907Z,5.75
2022-11-10T07:09:06.669Z,5.85
2022-11-10T07:11:33.020Z,5.88
2022-11-10T07:13:59.341Z,5.99
2022-11-10T07:16:25.689Z,6.06
2022-11-10T07:18:52.015Z,6.15
2022-11-10T07:21:18.403Z,6.22
2022-11-10T07:23:46.738Z,6.23
2022-11-10T07:26:14.096Z,6.31
2022-11-10T07:28:40.517Z,6.38
2022-11-10T07:31:06.851Z,6.45
2022-11-10T07:33:33.241Z,6.45
2022-11-10T07:36:03.349Z,6.66
2022-11-10T07:38:30.183Z,6.75
2022-11-10T07:40:56.696Z,6.87
2022-11-10T07:43:24.990Z,7.05
2022-11-10T07:45:52.760Z,7.17
2022-11-10T07:48:19.988Z,7.32
2022-11-10T07:50:46.770Z,7.39
2022-11-10T07:53:16.130Z,7.56
2022-11-10T07:55:44.186Z,7.57
2022-11-10T07:58:15.549Z,7.59
2022-11-10T08:00:42.903Z,7.53
2022-11-10T08:03:15.340Z,7.68
2022-11-10T08:05:41.993Z,7.84
2022-11-10T08:08:08.360Z,7.99
2022-11-10T08:10:35.942Z,8.04
2022-11-10T08:13:05.206Z,8.10
2022-11-10T08:15:37.154Z,8.16
2022-11-10T08:18:13.024Z,8.29
2022-11-10T08:20:39.659Z,8.42
2022-11-10T08:23:06.817Z,8.49
2022-11-10T08:25:35.825Z,8.59
2022-11-10T08:28:07.552Z,8.79
2022-11-10T08:30:36.005Z,8.88
2022-11-10T08:33:04.867Z,8.96
2022-11-10T08:35:34.521Z,9.05
2022-11-10T08:38:15.832Z,9.24
2022-11-10T08:40:43.602Z,9.41
2022-11-10T08:43:11.717Z,9.59
2022-11-10T08:45:40.177Z,9.84
2022-11-10T08:48:15.304Z,9.82
2022-11-10T08:50:42.670Z,9.89
2022-11-10T08:53:14.045Z,10.06
2022-11-10T08:55:41.663Z,10.05
2022-11-10T08:58:12.335Z,10.21
2022-11-10T09:00:38.706Z,10.27
2022-11-10T09:03:13.626Z,10.31
2022-11-10T09:05:40.544Z,10.38
2022-11-10T09:08:07.725Z,10.45
2022-11-10T09:10:36.595Z,10.88
2022-11-10T09:13:04.416Z,10.94
2022-11-10T09:15:32.099Z,10.86
2022-11-10T09:17:59.821Z,10.98
2022-11-10T09:20:28.056Z,11.02
2022-11-10T09:22:54.772Z,11.08
2022-11-10T09:25:21.997Z,11.26
2022-11-10T09:27:48.433Z,11.35
2022-11-10T09:30:17.877Z,11.34
2022-11-10T09:32:46.521Z,11.54
2022-11-10T09:35:13.544Z,11.65
2022-11-10T09:37:40.492Z,11.67
2022-11-10T09:40:13.102Z,11.63
2022-11-10T09:42:41.532Z,11.61
2022-11-10T09:45:20.037Z,11.71
2022-11-10T09:47:58.478Z,11.65
2022-11-10T09:50:53.097Z,11.84
2022-11-10T09:53:27.909Z,12.00
2022-11-10T09:56:03.280Z,12.16
2022-11-10T09:58:35.480Z,12.23
2022-11-10T10:01:27.969Z,12.41
2022-11-10T10:04:28.253Z,12.69
2022-11-10T10:07:16.471Z,12.82
2022-11-10T10:10:04.388Z,12.68
2022-11-10T10:12:52.373Z,12.93
2022-11-10T10:15:29.882Z,12.85
2022-11-10T10:18:21.764Z,12.86
2022-11-10T10:21:03.684Z,12.75
2022-11-10T10:24:02.598Z,12.73
2022-11-10T10:26:37.939Z,13.02
2022-11-10T10:29:18.196Z,13.13
2022-11-10T10:31:48.608Z,13.04
2022-11-10T10:34:17.489Z,12.94
2022-11-10T10:36:45.281Z,13.26
2022-11-10T10:39:16.831Z,13.32
2022-11-10T10:41:46.016Z,13.40
2022-11-10T10:44:18.499Z,13.58
2022-11-10T10:47:05.232Z,13.36
2022-11-10T10:49:36.699Z,13.69
2022-11-10T10:52:10.689Z,13.57
2022-11-10T10:54:38.712Z,13.66
2022-11-10T10:57:29.153Z,13.54
2022-11-10T11:00:22.047Z,13.99
2022-11-10T11:03:04.799Z,13.74
2022-11-10T11:05:32.129Z,13.83
2022-11-10T11:08:00.836Z,13.94
2022-11-10T11:10:30.159Z,13.91
2022-11-10T11:13:23.347Z,13.95
2022-11-10T11:16:01.012Z,14.05
2022-11-10T11:18:29.362Z,14.20
2022-11-10T11:21:06.010Z,13.98
2022-11-10T11:23:51.169Z,13.75
2022-11-10T11:26:36.050Z,13.92
2022-11-10T11:29:20.692Z,13.82
2022-11-10T11:31:56.257Z,13.87
2022-11-10T11:34:34.565Z,13.83
2022-11-10T11:37:32.831Z,13.94
2022-11-10T11:40:04.940Z,14.15
2022-11-10T11:42:55.311Z,14.12
2022-11-10T11:45:36.835Z,14.52
2022-11-10T11:48:19.876Z,14.38
2022-11-10T11:51:06.693Z,14.51
2022-11-10T11:53:54.357Z,14.49
2022-11-10T11:56:32.785Z,14.44
2022-11-10T11:59:08.144Z,14.47
2022-11-10T12:02:10.505Z,14.69
2022-11-10T12:05:04.122Z,14.58
2022-11-10T12:07:50.123Z,14.44
2022-11-10T12:10:49.340Z,14.35
2022-11-10T12:13:30.068Z,14.55
2022-11-10T12:16:08.442Z,14.42
2022-11-10T12:18:57.089Z,14.66
2022-11-10T12:21:51.776Z,14.91
2022-11-10T12:24:42.306Z,14.55
2022-11-10T12:27:18.211Z,14.69
2022-11-10T12:29:54.635Z,14.84
2022-11-10T12:32:43.054Z,14.78
2022-11-10T12:35:28.753Z,14.65
2022-11-10T12:38:01.105Z,14.54
2022-11-10T12:40:41.579Z,14.66
2022-11-10T12:43:29.421Z,14.74
2022-11-10T12:46:03.058Z,14.80
2022-11-10T12:48:39.344Z,15.08
2022-11-10T12:51:17.275Z,15.04
2022-11-10T12:53:45.721Z,14.94
2022-11-10T12:56:34.066Z,15.01
2022-11-10T12:59:40.019Z,15.01
2022-11-10T13:02:44.227Z,15.08
2022-11-10T13:05:24.603Z,14.87
2022-11-10T13:08:12.388Z,14.77
2022-11-10T13:10:50.976Z,14.81
2022-11-10T13:13:17.797Z,14.93
2022-11-10T13:15:44.152Z,14.75
2022-11-10T13:18:21.741Z,14.80
2022-11-10T13:20:53.913Z,14.95
2022-11-10T13:23:43.338Z,15.00
2022-11-10T13:26:44.515Z,15.05
2022-11-10T13:29:34.687Z,14.87
2022-11-10T13:32:24.775Z,14.68
2022-11-10T13:34:51.677Z,14.80
2022-11-10T13:37:33.448Z,14.96
2022-11-10T13:40:18.551Z,14.67
2022-11-10T13:43:05.151Z,14.90
2022-11-10T13:45:39.980Z,14.61
2022-11-10T13:48:12.391Z,14.65
2022-11-10T13:50:51.008Z,14.76
2022-11-10T13:53:40.619Z,14.71
2022-11-10T13:56:35.745Z,14.70
2022-11-10T13:59:17.500Z,14.91
2022-11-10T14:01:43.935Z,14.72
2022-11-10T14:04:41.582Z,14.93
2022-11-10T14:07:17.644Z,14.70
2022-11-10T14:09:52.528Z,14.85
2022-11-10T14:12:37.274Z,14.75
2022-11-10T14:15:12.207Z,14.79
2022-11-10T14:17:48.266Z,14.84
2022-11-10T14:20:39.165Z,14.64
2022-11-10T14:23:05.877Z,14.85
2022-11-10T14:25:38.119Z,14.87
2022-11-10T14:28:24.047Z,14.66
2022-11-10T14:30:53.147Z,14.62
2022-11-10T14:33:20.001Z,14.63
2022-11-10T14:35:59.469Z,14.50
2022-11-10T14:38:28.806Z,14.47
2022-11-10T14:40:58.923Z,14.48
2022-11-10T14:43:36.890Z,14.30
2022-11-10T14:46:05.473Z,14.21
2022-11-10T14:48:34.280Z,14.19
2022-11-10T14:51:07.008Z,14.20
2022-11-10T14:53:36.405Z,14.09
2022-11-10T14:56:05.910Z,14.03
2022-11-10T14:58:38.555Z,14.11
2022-11-10T15:01:06.861Z,13.87
2022-11-10T15:03:39.744Z,13.90
2022-11-10T15:06:11.672Z,13.76
2022-11-10T15:08:43.074Z,13.92
2022-11-10T15:11:32.697Z,13.85
2022-11-10T15:13:59.053Z,13.85
2022-11-10T15:16:26.635Z,13.62
2022-11-10T15:18:55.380Z,13.48
2022-11-10T15:21:29.496Z,13.76
2022-11-10T15:24:00.055Z,13.76
2022-11-10T15:26:28.391Z,13.57
2022-11-10T15:28:55.258Z,13.52
2022-11-10T15:31:30.809Z,13.79
2022-11-10T15:34:03.379Z,13.49
2022-11-10T15:36:32.174Z,13.22
2022-11-10T15:39:10.584Z,13.12
2022-11-10T15:41:42.266Z,13.19
2022-11-10T15:44:25.748Z,12.86
2022-11-10T15:46:55.317Z,12.95
2022-11-10T15:49:27.895Z,12.65
2022-11-10T15:52:00.511Z,12.72
2022-11-10T15:54:30.425Z,12.62
2022-11-10T15:56:56.843Z,12.55
2022-11-10T15:59:26.471Z,12.45
2022-11-10T16:01:53.144Z,12.48
2022-11-10T16:04:19.528Z,12.35
2022-11-10T16:06:46.552Z,12.22
2022-11-10T16:09:14.111Z,12.13
2022-11-10T16:11:44.794Z,12.02
2022-11-10T16:14:15.401Z,12.04
2022-11-10T16:16:42.592Z,12.01
2022-11-10T16:19:12.897Z,11.90
2022-11-10T16:21:39.268Z,11.99
2022-11-10T16:24:06.075Z,11.95
2022-11-10T16:26:34.093Z,11.69
2022-11-10T16:29:00.553Z,11.97
2022-11-10T16:31:27.679Z,11.85
2022-11-10T16:33:54.089Z,11.73
2022-11-10T16:36:29.466Z,11.66
2022-11-10T16:38:56.386Z,11.55
2022-11-10T16:41:23.547Z,11.52
2022-11-10T16:43:50.388Z,11.52
2022-11-10T16:46:23.275Z,11.46
2022-11-10T16:48:52.244Z,11.44
2022-11-10T16:51:18.621Z,11.45
2022-11-10T16:53:45.400Z,11.27
2022-11-10T16:56:15.975Z,11.26
2022-11-10T16:58:42.718Z,11.12
2022-11-10T17:01:24.931Z,10.86
2022-11-10T17:03:54.193Z,10.75
2022-11-10T17:06:23.292Z,10.91
2022-11-10T17:08:51.960Z,10.92
2022-11-10T17:11:18.813Z,11.04
2022-11-10T17:13:45.147Z,11.00
2022-11-10T17:16:21.939Z,10.94
2022-11-10T17:18:49.008Z,10.98
2022-11-10T17:21:15.531Z,10.93
2022-11-10T17:23:42.432Z,10.81
2022-11-10T17:26:11.008Z,10.80
2022-11-10T17:28:37.407Z,10.89
2022-11-10T17:31:03.860Z,10.93
2022-11-10T17:33:31.170Z,10.90
2022-11-10T17:35:58.322Z,10.84
2022-11-10T17:38:27.966Z,10.71
2022-11-10T17:40:54.531Z,10.46
2022-11-10T17:43:21.881Z,10.48
2022-11-10T17:45:48.686Z,10.31
2022-11-10T17:48:15.238Z,10.17
2022-11-10T17:50:43.446Z,9.99
2022-11-10T17:53:22.769Z,9.72
2022-11-10T17:55:49.796Z,9.72
2022-11-10T17:58:17.564Z,9.61
2022-11-10T18:00:47.537Z,9.34
2022-11-10T18:03:20.510Z,9.38
2022-11-10T18:05:47.466Z,9.23
2022-11-10T18:08:15.531Z,9.17
2022-11-10T18:10:52.972Z,9.16
2022-11-10T18:13:19.609Z,9.07
2022-11-10T18:15:47.704Z,9.02
2022-11-10T18:18:16.577Z,8.86
2022-11-10T18:20:43.988Z,8.86
2022-11-10T18:23:12.578Z,8.87
2022-11-10T18:25:39.968Z,8.81
2022-11-10T18:28:07.051Z,8.59
2022-11-10T18:30:35.443Z,8.56
2022-11-10T18:33:03.131Z,8.35
2022-11-10T18:35:29.658Z,8.39
2022-11-10T18:37:57.316Z,8.63
2022-11-10T18:40:24.215Z,8.37
2022-11-10T18:42:50.608Z,8.37
2022-11-10T18:45:17.045Z,8.35
2022-11-10T18:47:43.407Z,8.26
2022-11-10T18:50:10.043Z,8.32
2022-11-10T18:52:36.391Z,8.32
2022-11-10T18:55:03.144Z,8.36
2022-11-10T18:57:29.483Z,8.45
2022-11-10T18:59:55.902Z,8.47
2022-11-10T19:02:22.285Z,8.28
2022-11-10T19:04:53.412Z,8.12
2022-11-10T19:07:20.175Z,8.03
2022-11-10T19:09:46.607Z,8.31
2022-11-10T19:12:13.244Z,7.92
2022-11-10T19:14:41.144Z,7.79
2022-11-10T19:17:07.510Z,7.70
2022-11-10T19:19:33.987Z,7.53
2022-11-10T19:22:00.680Z,7.57
2022-11-10T19:24:28.273Z,7.51
2022-11-10T19:26:56.563Z,7.49
2022-11-10T19:29:22.930Z,7.36
2022-11-10T19:31:49.846Z,7.40
2022-11-10T19:34:18.776Z,7.36
2022-11-10T19:36:45.906Z,7.29
2022-11-10T19:39:12.391Z,7.15
2022-11-10T19:41:38.783Z,7.11
2022-11-10T19:44:05.438Z,7.06
2022-11-10T19:46:36.401Z,7.06
2022-11-10T19:49:04.117Z,6.88
2022-11-10T19:51:30.538Z,6.95
2022-11-10T19:54:01.635Z,6.97
2022-11-10T19:56:31.880Z,7.10
2022-11-10T19:58:58.730Z,6.94
2022-11-10T20:01:26.186Z,6.90
2022-11-10T20:03:52.662Z,6.95
2022-11-10T20:06:21.565Z,7.03
2022-11-10T20:08:49.087Z,6.90
2022-11-10T20:11:23.844Z,6.70
2022-11-10T20:13:54.714Z,7.04
2022-11-10T20:16:22.406Z,6.75
2022-11-10T20:18:48.953Z,6.91
2022-11-10T20:21:17.713Z,6.67
2022-11-10T20:23:44.228Z,6.63
2022-11-10T20:26:16.643Z,6.61
2022-11-10T20:28:44.606Z,6.72
2022-11-10T20:31:24.203Z,6.61
2022-11-10T20:33:53.576Z,6.62
2022-11-10T20:36:23.098Z,6.50
2022-11-10T20:38:50.364Z,6.41
2022-11-10T20:41:19.716Z,6.30
2022-11-10T20:43:46.483Z,6.37
2022-11-10T20:46:40.454Z,6.35
2022-11-10T20:49:04.592Z,6.28
2022-11-10T20:51:31.053Z,6.59
2022-11-10T20:54:01.284Z,6.41
2022-11-10T20:56:29.841Z,6.50
2022-11-10T20:58:57.356Z,6.79
2022-11-10T21:01:24.350Z,6.78
2022-11-10T21:03:51.119Z,6.82
2022-11-10T21:06:17.483Z,6.88
2022-11-10T21:08:43.839Z,6.86
2022-11-10T21:11:10.933Z,6.77
2022-11-10T21:13:37.530Z,6.87
2022-11-10T21:16:06.118Z,7.28
2022-11-10T21:18:36.805Z,6.81
2022-11-10T21:21:04.890Z,6.73
2022-11-10T21:23:31.234Z,6.55
2022-11-10T21:26:00.120Z,6.46
2022-11-10T21:28:27.383Z,6.27
2022-11-10T21:31:04.813Z,6.44
2022-11-10T21:33:31.169Z,6.47
2022-11-10T21:35:57.592Z,6.50
2022-11-10T21:38:23.989Z,6.27
2022-11-10T21:40:50.381Z,6.17
2022-11-10T21:43:16.834Z,6.17
2022-11-10T21:45:43.186Z,5.99
2022-11-10T21:48:09.559Z,6.06
2022-11-10T21:50:35.886Z,6.04
2022-11-10T21:53:07.946Z,6.07
2022-11-10T21:55:34.368Z,6.16
2022-11-10T21:58:00.788Z,5.99
2022-11-10T22:00:27.661Z,5.98
2022-11-10T22:03:01.524Z,5.99
2022-11-10T22:05:28.124Z,5.95
2022-11-10T22:07:54.625Z,5.91
2022-11-10T22:10:39.635Z,5.99
2022-11-10T22:13:32.605Z,5.88
2022-11-10T22:16:17.458Z,5.90
2022-11-10T22:18:46.427Z,5.84
2022-11-10T22:21:12.764Z,5.62
2022-11-10T22:23:57.887Z,5.54
2022-11-10T22:26:24.225Z,5.66
2022-11-10T22:28:50.645Z,5.69
2022-11-10T22:31:17.082Z,5.51
2022-11-10T22:33:43.643Z,5.53
2022-11-10T22:36:13.263Z,5.42
2022-11-10T22:38:41.082Z,5.30
2022-11-10T22:41:31.057Z,5.15
2022-11-10T22:44:03.700Z,5.16
2022-11-10T22:46:41.497Z,5.16
2022-11-10T22:49:10.100Z,5.21
2022-11-10T22:51:38.389Z,5.11
2022-11-10T22:54:06.356Z,5.17
2022-11-10T22:56:33.247Z,5.25
2022-11-10T22:59:00.475Z,5.17
2022-11-10T23:01:27.604Z,5.13
2022-11-10T23:03:54.549Z,5.09
2022-11-10T23:06:21.011Z,5.17
2022-11-10T23:08:47.459Z,5.15
2022-11-10T23:11:17.074Z,5.47
2022-11-10T23:13:43.436Z,5.15
2022-11-10T23:16:13.069Z,5.21
2022-11-10T23:18:41.220Z,5.25
2022-11-10T23:21:09.867Z,5.36
2022-11-10T23:23:38.531Z,5.67
2022-11-10T23:26:08.598Z,5.89
2022-11-10T23:28:35.957Z,6.24
2022-11-10T23:31:16.188Z,6.32
2022-11-10T23:33:43.800Z,6.46
2022-11-10T23:36:12.033Z,6.49
2022-11-10T23:38:39.257Z,6.58
2022-11-10T23:41:07.167Z,6.67
2022-11-10T23:43:33.692Z,6.80
2022-11-10T23:46:06.755Z,6.93
2022-11-10T23:48:35.074Z,6.90
2022-11-10T23:51:01.483Z,7.00
2022-11-10T23:53:27.888Z,7.12
2022-11-10T23:56:02.339Z,7.08
2022-11-10T23:58:29.720Z,7.26
